Time;durP1;ratioP1;P1;durP2;ratioP2;P2;SDS_P1;SDS_P2;PMS_P1;PMS_P2;Temp;Humidity;BMP_temperature;BMP_pressure;BME280_temperature;BME280_humidity;BME280_pressure;Samples;Min_cycle;Max_cycle;Signal;HPM_P1;HPM_P2
2022/02/28 00:00:29;;;;;;;5.68;4.13;;;4.10;99.90;;;;;;5073930;28;20028;-42
2022/02/28 00:02:56;;;;;;;7.50;4.15;;;4.10;99.90;;;;;;5067177;28;20078;-43
2022/02/28 00:05:28;;;;;;;7.43;4.53;;;4.10;99.90;;;;;;5073729;28;20032;-43
2022/02/28 00:07:54;;;;;;;5.63;4.03;;;4.10;99.90;;;;;;5084538;28;20035;-42
2022/02/28 00:10:20;;;;;;;6.53;4.65;;;4.10;99.90;;;;;;5074425;28;20032;-42
2022/02/28 00:12:45;;;;;;;6.63;4.28;;;4.10;99.90;;;;;;5084803;28;20051;-43
2022/02/28 00:15:13;;;;;;;7.72;4.50;;;4.10;99.90;;;;;;5073932;28;20027;-43
2022/02/28 00:17:39;;;;;;;7.57;4.53;;;4.10;99.90;;;;;;5086542;28;20032;-41
2022/02/28 00:20:10;;;;;;;7.78;4.38;;;4.00;99.90;;;;;;5072980;28;20033;-41
2022/02/28 00:22:36;;;;;;;5.13;3.75;;;4.00;99.90;;;;;;5086012;28;20047;-42
2022/02/28 00:25:03;;;;;;;7.15;4.50;;;4.00;99.90;;;;;;5072699;28;20036;-43
2022/02/28 00:27:29;;;;;;;8.13;4.28;;;4.00;99.90;;;;;;5085431;28;20039;-43
2022/02/28 00:29:54;;;;;;;7.00;4.30;;;4.00;99.90;;;;;;5075777;28;20021;-42
2022/02/28 00:32:21;;;;;;;7.57;5.38;;;4.00;99.90;;;;;;5087483;28;20369;-41
2022/02/28 00:34:47;;;;;;;7.10;4.93;;;4.00;99.90;;;;;;5081891;28;20770;-42
2022/02/28 00:37:12;;;;;;;7.93;4.30;;;3.90;99.90;;;;;;5085952;28;20149;-42
2022/02/28 00:39:38;;;;;;;7.38;4.45;;;3.90;99.90;;;;;;5082837;28;20468;-42
2022/02/28 00:42:04;;;;;;;5.85;4.38;;;3.90;99.90;;;;;;5082696;28;20090;-42
2022/02/28 00:44:30;;;;;;;7.53;4.18;;;3.90;99.90;;;;;;5085603;28;20027;-43
2022/02/28 00:46:55;;;;;;;8.90;4.30;;;3.90;99.90;;;;;;5079181;28;20024;-43
2022/02/28 00:49:21;;;;;;;5.63;3.95;;;3.90;99.90;;;;;;5082816;28;20460;-42
2022/02/28 00:51:46;;;;;;;6.15;4.18;;;3.90;99.90;;;;;;5079912;28;20044;-42
2022/02/28 00:54:12;;;;;;;6.28;4.13;;;3.90;99.90;;;;;;5069402;28;20072;-42
2022/02/28 00:56:37;;;;;;;5.25;3.72;;;3.80;99.90;;;;;;5080180;28;20024;-40
2022/02/28 00:59:03;;;;;;;7.32;4.10;;;3.90;99.90;;;;;;5069265;28;20028;-41
2022/02/28 01:01:28;;;;;;;6.22;4.00;;;3.80;99.90;;;;;;5080206;28;20051;-42
2022/02/28 01:03:54;;;;;;;5.25;4.30;;;3.80;99.90;;;;;;5068959;28;20122;-43
2022/02/28 01:06:20;;;;;;;5.55;3.92;;;3.80;99.90;;;;;;5080467;28;20107;-43
2022/02/28 01:08:45;;;;;;;6.78;4.28;;;3.70;99.90;;;;;;5068176;28;20077;-42
2022/02/28 01:11:11;;;;;;;4.78;3.53;;;3.80;99.90;;;;;;5078337;28;20032;-43
2022/02/28 01:13:36;;;;;;;5.97;3.97;;;3.70;99.90;;;;;;5071612;28;20027;-43
2022/02/28 01:16:02;;;;;;;6.43;3.45;;;3.70;99.90;;;;;;5075413;28;20500;-42
2022/02/28 01:18:28;;;;;;;6.32;4.38;;;3.70;99.90;;;;;;5073759;28;20029;-42
2022/02/28 01:20:53;;;;;;;7.38;3.90;;;3.60;99.90;;;;;;5073018;28;20032;-42
2022/02/28 01:23:19;;;;;;;7.85;4.82;;;3.70;99.90;;;;;;5075699;28;20024;-42
2022/02/28 01:25:45;;;;;;;6.63;3.83;;;3.60;99.90;;;;;;5069995;28;20016;-44
2022/02/28 01:28:11;;;;;;;5.45;4.07;;;3.60;99.90;;;;;;5078088;28;20043;-42
2022/02/28 01:30:37;;;;;;;5.57;4.10;;;3.60;99.90;;;;;;5069630;28;20483;-41
2022/02/28 01:33:03;;;;;;;5.97;4.22;;;3.60;99.90;;;;;;5079540;28;20036;-42
2022/02/28 01:35:28;;;;;;;5.78;3.72;;;3.50;99.90;;;;;;5067628;28;20039;-42
2022/02/28 01:37:54;;;;;;;4.95;3.25;;;3.50;99.90;;;;;;5081014;28;20470;-42
2022/02/28 01:40:20;;;;;;;6.85;4.35;;;3.50;99.90;;;;;;5067823;28;20028;-42
2022/02/28 01:42:46;;;;;;;6.18;4.60;;;3.50;99.90;;;;;;5078906;28;20371;-41
2022/02/28 01:45:14;;;;;;;5.25;4.07;;;3.50;99.90;;;;;;5068514;28;20384;-42
2022/02/28 01:47:40;;;;;;;5.32;3.80;;;3.50;99.90;;;;;;5080105;28;20028;-43
2022/02/28 01:50:07;;;;;;;6.18;4.28;;;3.50;99.90;;;;;;5068349;28;20492;-43
2022/02/28 01:52:33;;;;;;;6.18;3.90;;;3.40;99.90;;;;;;5076978;28;20024;-43
2022/02/28 01:54:59;;;;;;;6.43;4.28;;;3.40;99.90;;;;;;5070266;28;20053;-40
2022/02/28 01:57:24;;;;;;;6.50;4.13;;;3.40;99.90;;;;;;5073736;28;20024;-47
2022/02/28 01:59:51;;;;;;;5.35;3.90;;;3.40;99.90;;;;;;5073133;28;20055;-43
2022/02/28 02:02:17;;;;;;;5.40;3.35;;;3.40;99.90;;;;;;5071147;28;20043;-42
2022/02/28 02:04:43;;;;;;;4.93;3.83;;;3.40;99.90;;;;;;5074951;28;20024;-42
2022/02/28 02:07:09;;;;;;;7.20;4.95;;;3.40;99.90;;;;;;5069026;28;20541;-42
2022/02/28 02:09:36;;;;;;;6.88;3.88;;;3.30;99.90;;;;;;5078593;28;20282;-41
2022/02/28 02:12:03;;;;;;;8.35;4.90;;;3.30;99.90;;;;;;5068285;28;20115;-42
2022/02/28 02:14:32;;;;;;;6.15;3.95;;;3.30;99.90;;;;;;5078067;28;20067;-44
2022/02/28 02:16:58;;;;;;;6.55;4.05;;;3.20;99.90;;;;;;5068927;28;20025;-42
2022/02/28 02:19:23;;;;;;;6.85;3.78;;;3.20;99.90;;;;;;5077269;28;20040;-47
2022/02/28 02:21:49;;;;;;;5.30;3.90;;;3.20;99.90;;;;;;5067284;28;20079;-41
2022/02/28 02:24:15;;;;;;;5.90;4.93;;;3.20;99.90;;;;;;5079699;28;20090;-42
2022/02/28 02:26:40;;;;;;;5.75;4.05;;;3.20;99.90;;;;;;5066899;28;20052;-43
2022/02/28 02:29:06;;;;;;;5.65;4.15;;;3.20;99.90;;;;;;5079558;28;20028;-43
2022/02/28 02:31:31;;;;;;;5.72;4.18;;;3.10;99.90;;;;;;5066501;28;20063;-43
2022/02/28 02:33:57;;;;;;;6.20;3.92;;;3.10;99.90;;;;;;5076876;28;20433;-42
2022/02/28 02:36:22;;;;;;;5.93;4.13;;;3.10;99.90;;;;;;5069443;28;20476;-42
2022/02/28 02:38:50;;;;;;;6.13;4.10;;;3.10;99.90;;;;;;5073769;28;20028;-42
2022/02/28 02:41:16;;;;;;;6.50;4.38;;;3.10;99.90;;;;;;5071585;28;20036;-43
2022/02/28 02:43:41;;;;;;;7.38;4.40;;;3.10;99.90;;;;;;5070883;28;20039;-42
2022/02/28 02:46:07;;;;;;;6.47;4.13;;;3.00;99.90;;;;;;5074580;28;20547;-43
2022/02/28 02:48:32;;;;;;;7.50;4.40;;;3.00;99.90;;;;;;5068848;28;20029;-43
2022/02/28 02:50:58;;;;;;;6.40;4.70;;;3.00;99.90;;;;;;5077303;28;20551;-40
2022/02/28 02:53:24;;;;;;;6.68;4.45;;;3.00;99.90;;;;;;5066337;28;20074;-42
2022/02/28 02:55:49;;;;;;;6.43;4.60;;;3.00;99.90;;;;;;5078473;28;20021;-42
2022/02/28 02:58:15;;;;;;;6.53;3.90;;;3.00;99.90;;;;;;5067001;28;20028;-42
2022/02/28 03:00:46;;;;;;;5.00;3.42;;;2.90;99.90;;;;;;5078121;28;20064;-43
2022/02/28 03:03:16;;;;;;;6.57;4.03;;;2.90;99.90;;;;;;5066471;28;20058;-41
2022/02/28 03:05:42;;;;;;;7.32;4.50;;;2.90;99.90;;;;;;5078277;28;20074;-43
2022/02/28 03:08:07;;;;;;;6.65;4.15;;;2.90;99.90;;;;;;5065620;28;20562;-42
2022/02/28 03:10:33;;;;;;;6.18;4.35;;;2.90;99.90;;;;;;5078363;28;20035;-43
2022/02/28 03:13:00;;;;;;;5.13;4.25;;;2.90;99.90;;;;;;5066273;28;20051;-41
2022/02/28 03:15:25;;;;;;;7.47;4.18;;;2.80;99.90;;;;;;5075987;28;20027;-43
2022/02/28 03:17:54;;;;;;;6.10;4.18;;;2.80;99.90;;;;;;5067728;28;20076;-41
2022/02/28 03:20:20;;;;;;;4.32;3.58;;;2.80;99.90;;;;;;5073747;28;20452;-43
2022/02/28 03:22:45;;;;;;;6.35;4.43;;;2.80;99.90;;;;;;5070739;28;20090;-40
2022/02/28 03:25:11;;;;;;;6.78;4.80;;;2.80;99.90;;;;;;5071223;28;20024;-44
2022/02/28 03:27:37;;;;;;;7.47;4.00;;;2.80;99.90;;;;;;5072836;28;20024;-39
2022/02/28 03:30:06;;;;;;;6.32;4.40;;;2.80;99.90;;;;;;5068041;28;20559;-42
2022/02/28 03:32:31;;;;;;;6.82;4.53;;;2.70;99.90;;;;;;5074757;28;20042;-42
2022/02/28 03:34:57;;;;;;;6.20;4.22;;;2.70;99.90;;;;;;5066398;28;20391;-42
2022/02/28 03:37:22;;;;;;;6.65;4.18;;;2.70;99.90;;;;;;5076927;28;20494;-42
2022/02/28 03:39:48;;;;;;;5.82;4.43;;;2.70;99.90;;;;;;5067850;28;20437;-42
2022/02/28 03:42:14;;;;;;;5.28;3.90;;;2.70;99.90;;;;;;5075894;28;20037;-41
2022/02/28 03:44:40;;;;;;;6.80;4.43;;;2.70;99.90;;;;;;5066058;28;20025;-42
2022/02/28 03:47:06;;;;;;;4.85;3.92;;;2.70;99.90;;;;;;5077951;28;20039;-41
2022/02/28 03:49:31;;;;;;;7.60;4.93;;;2.60;99.90;;;;;;5065050;28;20032;-41
2022/02/28 03:51:57;;;;;;;6.05;4.15;;;2.60;99.90;;;;;;5078418;28;20073;-41
2022/02/28 03:54:23;;;;;;;5.47;3.90;;;2.60;99.90;;;;;;5064723;28;20195;-42
2022/02/28 03:56:48;;;;;;;6.10;3.92;;;2.60;99.90;;;;;;5075779;28;20028;-43
2022/02/28 03:59:14;;;;;;;5.63;4.00;;;2.60;99.90;;;;;;5067111;28;20094;-42
2022/02/28 04:01:40;;;;;;;5.43;3.97;;;2.60;99.90;;;;;;5073512;28;20040;-41
2022/02/28 04:04:06;;;;;;;5.95;4.38;;;2.50;99.90;;;;;;5069452;28;20089;-42
2022/02/28 04:06:32;;;;;;;7.28;4.78;;;2.50;99.90;;;;;;5069794;28;20024;-42
2022/02/28 04:08:59;;;;;;;5.35;4.18;;;2.50;99.90;;;;;;5073116;28;20028;-42
2022/02/28 04:11:25;;;;;;;5.20;4.22;;;2.50;99.90;;;;;;5067044;28;20017;-40
2022/02/28 04:13:51;;;;;;;6.32;3.95;;;2.40;99.90;;;;;;5074561;28;20032;-40
2022/02/28 04:16:16;;;;;;;4.75;3.90;;;2.40;99.90;;;;;;5066437;28;20746;-42
2022/02/28 04:18:42;;;;;;;4.80;3.42;;;2.40;99.90;;;;;;5075673;28;20610;-43
2022/02/28 04:21:08;;;;;;;4.72;3.58;;;2.30;99.90;;;;;;5066732;28;20056;-43
2022/02/28 04:23:33;;;;;;;4.45;3.55;;;2.30;99.90;;;;;;5076995;28;20078;-42
2022/02/28 04:26:00;;;;;;;4.40;3.53;;;2.30;99.90;;;;;;5064712;28;20109;-43
2022/02/28 04:28:26;;;;;;;4.35;3.55;;;2.30;99.90;;;;;;5077387;28;20119;-42
2022/02/28 04:30:51;;;;;;;5.45;3.80;;;2.20;99.90;;;;;;5065416;28;20177;-41
2022/02/28 04:33:17;;;;;;;4.85;3.63;;;2.20;99.90;;;;;;5076567;28;20032;-45
2022/02/28 04:35:43;;;;;;;6.18;4.22;;;2.20;99.90;;;;;;5065703;28;20040;-42
2022/02/28 04:38:09;;;;;;;5.93;3.63;;;2.20;99.90;;;;;;5074470;28;20106;-44
2022/02/28 04:40:41;;;;;;;6.15;4.30;;;2.20;99.90;;;;;;5067407;28;20024;-43
2022/02/28 04:43:07;;;;;;;6.03;3.92;;;2.20;99.90;;;;;;5073469;28;20078;-41
2022/02/28 04:45:32;;;;;;;5.18;3.83;;;2.10;99.90;;;;;;5068798;28;20464;-43
2022/02/28 04:47:58;;;;;;;4.85;3.60;;;2.10;99.90;;;;;;5070859;28;20035;-41
2022/02/28 04:50:24;;;;;;;6.55;4.18;;;2.10;99.90;;;;;;5068558;28;20032;-41
2022/02/28 04:52:49;;;;;;;6.10;4.25;;;2.10;99.90;;;;;;5068082;28;20039;-44
2022/02/28 04:55:15;;;;;;;7.43;4.13;;;2.10;99.90;;;;;;5073760;28;20057;-41
2022/02/28 04:57:43;;;;;;;6.57;4.20;;;2.10;99.90;;;;;;5066522;28;20024;-43
2022/02/28 05:00:09;;;;;;;5.25;4.30;;;2.10;99.90;;;;;;5075624;28;20046;-41
2022/02/28 05:02:35;;;;;;;6.55;4.57;;;2.10;99.90;;;;;;5065880;28;20033;-42
2022/02/28 05:05:03;;;;;;;6.22;4.45;;;2.10;99.90;;;;;;5076647;28;20019;-41
2022/02/28 05:07:28;;;;;;;6.10;4.05;;;2.00;99.90;;;;;;5063844;28;20056;-43
2022/02/28 05:09:54;;;;;;;7.63;4.38;;;2.00;99.90;;;;;;5077501;28;20519;-42
2022/02/28 05:12:19;;;;;;;5.97;4.50;;;2.00;99.90;;;;;;5064651;28;20380;-41
2022/02/28 05:14:45;;;;;;;5.88;4.65;;;2.00;99.90;;;;;;5077373;28;20064;-43
2022/02/28 05:17:10;;;;;;;8.20;4.35;;;2.00;99.90;;;;;;5067276;28;20029;-41
2022/02/28 05:19:36;;;;;;;5.85;4.00;;;2.00;99.90;;;;;;5078726;28;20020;-43
2022/02/28 05:22:03;;;;;;;5.80;4.53;;;1.90;99.90;;;;;;5069324;28;20044;-43
2022/02/28 05:24:29;;;;;;;5.80;4.57;;;1.90;99.90;;;;;;5075699;28;20514;-43
2022/02/28 05:26:55;;;;;;;5.45;4.05;;;1.90;99.90;;;;;;5072218;28;20059;-43
2022/02/28 05:29:21;;;;;;;6.35;4.20;;;1.90;99.90;;;;;;5072903;28;20383;-41
2022/02/28 05:31:46;;;;;;;6.07;4.22;;;1.90;99.90;;;;;;5074642;28;20028;-43
2022/02/28 05:34:11;;;;;;;5.57;4.40;;;1.90;99.90;;;;;;5071485;28;20036;-44
2022/02/28 05:36:37;;;;;;;6.20;3.88;;;1.80;99.90;;;;;;5077215;28;20025;-42
2022/02/28 05:39:02;;;;;;;8.48;4.80;;;1.80;99.90;;;;;;5069864;28;20503;-43
2022/02/28 05:41:28;;;;;;;5.97;4.15;;;1.80;99.90;;;;;;5078696;28;20552;-40
2022/02/28 05:43:53;;;;;;;5.85;4.20;;;1.80;99.90;;;;;;5069256;28;20571;-43
2022/02/28 05:46:19;;;;;;;5.57;4.32;;;1.80;99.90;;;;;;5078540;28;20024;-41
2022/02/28 05:48:45;;;;;;;6.25;4.38;;;1.80;99.90;;;;;;5069907;28;20024;-43
2022/02/28 05:51:10;;;;;;;5.60;4.13;;;1.80;99.90;;;;;;5075464;28;20062;-42
2022/02/28 05:53:36;;;;;;;6.88;4.45;;;1.70;99.90;;;;;;5088213;28;20107;-42
2022/02/28 05:56:01;;;;;;;5.70;4.45;;;1.70;99.90;;;;;;5074327;28;20774;-43
2022/02/28 05:58:27;;;;;;;5.55;4.30;;;1.70;99.90;;;;;;5087661;28;20527;-45
2022/02/28 06:00:53;;;;;;;5.20;4.20;;;1.70;99.90;;;;;;5078077;28;20097;-44
2022/02/28 06:03:18;;;;;;;5.78;4.28;;;1.70;99.90;;;;;;5084235;28;20601;-41
2022/02/28 06:05:44;;;;;;;5.78;4.60;;;1.70;99.90;;;;;;5080519;28;20545;-44
2022/02/28 06:08:09;;;;;;;6.32;4.38;;;1.60;99.90;;;;;;5082771;28;20032;-43
2022/02/28 06:10:35;;;;;;;7.38;4.57;;;1.60;99.90;;;;;;5081785;28;20029;-42
2022/02/28 06:13:00;;;;;;;5.68;4.75;;;1.60;99.90;;;;;;5080030;28;20090;-40
2022/02/28 06:15:26;;;;;;;7.57;4.50;;;1.60;99.90;;;;;;5085278;28;20028;-43
2022/02/28 06:17:52;;;;;;;7.18;4.38;;;1.60;99.90;;;;;;5076605;28;20031;-41
2022/02/28 06:20:17;;;;;;;6.63;4.30;;;1.50;99.90;;;;;;5085639;28;20380;-42
2022/02/28 06:22:44;;;;;;;6.30;4.40;;;1.50;99.90;;;;;;5076389;28;20036;-45
2022/02/28 06:25:10;;;;;;;5.53;4.25;;;1.50;99.90;;;;;;5086690;28;20135;-42
2022/02/28 06:27:35;;;;;;;6.38;4.20;;;1.50;99.90;;;;;;5075044;28;20040;-43
2022/02/28 06:30:01;;;;;;;6.45;4.35;;;1.50;99.90;;;;;;5086907;28;20107;-47
2022/02/28 06:32:27;;;;;;;5.68;4.50;;;1.50;99.90;;;;;;5072996;28;20563;-41
2022/02/28 06:34:53;;;;;;;5.25;4.38;;;1.50;99.90;;;;;;5087524;28;20123;-42
2022/02/28 06:37:19;;;;;;;5.75;4.55;;;1.50;99.90;;;;;;5074522;28;20081;-41
2022/02/28 06:39:45;;;;;;;5.10;4.50;;;1.40;99.90;;;;;;5085741;28;20413;-42
2022/02/28 06:42:11;;;;;;;6.05;3.95;;;1.40;99.90;;;;;;5077832;28;20044;-44
2022/02/28 06:44:36;;;;;;;6.45;4.53;;;1.40;99.90;;;;;;5083200;28;20028;-42
2022/02/28 06:47:02;;;;;;;7.15;4.38;;;1.40;99.90;;;;;;5079651;28;20024;-42
2022/02/28 06:49:28;;;;;;;7.93;5.82;;;1.40;99.90;;;;;;5080558;28;20120;-40
2022/02/28 06:51:53;;;;;;;8.48;5.05;;;1.40;99.90;;;;;;5082622;28;20127;-39
2022/02/28 06:54:19;;;;;;;6.63;4.57;;;1.40;99.90;;;;;;5077617;28;20047;-42
2022/02/28 06:56:44;;;;;;;5.47;4.13;;;1.40;99.90;;;;;;5085306;28;20044;-42
2022/02/28 06:59:10;;;;;;;5.75;4.00;;;1.50;99.90;;;;;;5074459;28;20020;-41
2022/02/28 07:01:36;;;;;;;5.50;4.15;;;1.50;99.90;;;;;;5085336;28;20685;-42
2022/02/28 07:04:03;;;;;;;4.93;3.85;;;1.50;99.90;;;;;;5075562;28;20058;-42
2022/02/28 07:06:29;;;;;;;5.38;4.40;;;1.50;99.90;;;;;;5086102;28;20047;-41
2022/02/28 07:08:55;;;;;;;6.15;4.00;;;1.50;99.90;;;;;;5074108;28;20031;-42
2022/02/28 07:11:21;;;;;;;6.75;4.20;;;1.50;99.90;;;;;;5086915;28;20036;-43
2022/02/28 07:13:46;;;;;;;5.97;4.45;;;1.50;99.90;;;;;;5073228;28;20036;-43
2022/02/28 07:16:14;;;;;;;6.82;4.60;;;1.60;99.90;;;;;;5086649;28;20059;-43
2022/02/28 07:18:39;;;;;;;6.22;4.43;;;1.60;99.90;;;;;;5075351;28;20033;-42
2022/02/28 07:21:05;;;;;;;6.20;5.05;;;1.70;99.90;;;;;;5084771;28;20047;-42
2022/02/28 07:23:30;;;;;;;7.25;4.82;;;1.70;99.90;;;;;;5077076;28;20059;-41
2022/02/28 07:25:56;;;;;;;6.72;4.78;;;1.80;99.90;;;;;;5083548;28;20050;-43
2022/02/28 07:28:22;;;;;;;6.40;4.82;;;1.80;99.90;;;;;;5079274;28;20021;-42
2022/02/28 07:30:47;;;;;;;6.75;4.32;;;1.80;99.90;;;;;;5080498;28;20027;-42
2022/02/28 07:33:13;;;;;;;7.05;5.05;;;1.80;99.90;;;;;;5082416;28;20035;-43
2022/02/28 07:35:39;;;;;;;6.05;4.55;;;1.90;99.90;;;;;;5077107;28;20039;-41
2022/02/28 07:38:04;;;;;;;5.35;4.38;;;1.90;99.90;;;;;;5085011;28;20020;-42
2022/02/28 07:40:30;;;;;;;6.30;4.45;;;2.00;99.90;;;;;;5074125;28;20039;-42
2022/02/28 07:42:56;;;;;;;8.57;4.85;;;2.00;99.90;;;;;;5083964;28;20074;-42
2022/02/28 07:45:22;;;;;;;6.45;4.07;;;2.10;99.90;;;;;;5073161;28;20479;-44
2022/02/28 07:47:47;;;;;;;5.75;4.15;;;2.10;99.90;;;;;;5086455;28;20031;-41
2022/02/28 07:50:13;;;;;;;6.43;4.25;;;2.10;99.90;;;;;;5072359;28;20024;-42
2022/02/28 07:52:39;;;;;;;5.22;4.20;;;2.20;99.90;;;;;;5086642;28;20081;-41
2022/02/28 07:55:05;;;;;;;5.85;5.03;;;2.20;99.90;;;;;;5072119;28;20760;-42
2022/02/28 07:57:31;;;;;;;6.85;5.30;;;2.20;99.90;;;;;;5085248;28;20031;-42
2022/02/28 07:59:56;;;;;;;6.55;4.70;;;2.30;99.90;;;;;;5075240;28;20016;-42
2022/02/28 08:02:23;;;;;;;6.28;4.50;;;2.40;99.90;;;;;;5083172;28;20795;-44
2022/02/28 08:04:48;;;;;;;6.38;4.32;;;2.40;99.90;;;;;;5077794;28;20161;-41
2022/02/28 08:07:14;;;;;;;6.22;4.72;;;2.40;99.90;;;;;;5080670;28;20126;-43
2022/02/28 08:09:39;;;;;;;5.90;4.43;;;2.40;99.90;;;;;;5079186;28;20024;-41
2022/02/28 08:12:05;;;;;;;6.72;4.70;;;2.50;99.90;;;;;;5079113;28;20036;-44
2022/02/28 08:14:31;;;;;;;6.25;4.65;;;2.50;99.90;;;;;;5082099;28;20553;-40
2022/02/28 08:16:57;;;;;;;6.32;5.28;;;2.50;99.90;;;;;;5075492;28;20019;-44
2022/02/28 08:19:22;;;;;;;5.57;4.43;;;2.60;99.90;;;;;;5084083;28;20066;-41
2022/02/28 08:21:48;;;;;;;6.13;4.53;;;2.60;99.90;;;;;;5074298;28;20082;-42
2022/02/28 08:24:13;;;;;;;5.10;4.20;;;2.70;99.90;;;;;;5083885;28;20052;-43
2022/02/28 08:26:39;;;;;;;6.80;4.75;;;2.70;99.90;;;;;;5074294;28;20024;-42
2022/02/28 08:29:04;;;;;;;6.55;4.75;;;2.70;99.90;;;;;;5086039;28;20028;-42
2022/02/28 08:31:30;;;;;;;6.57;4.40;;;2.80;99.90;;;;;;5071810;28;20115;-43
2022/02/28 08:33:55;;;;;;;4.95;4.00;;;2.80;99.90;;;;;;5086052;28;20032;-42
2022/02/28 08:36:21;;;;;;;7.53;5.10;;;2.90;99.90;;;;;;5072467;28;20023;-42
2022/02/28 08:38:49;;;;;;;8.77;5.05;;;2.90;99.90;;;;;;5085196;28;20435;-43
2022/02/28 08:41:15;;;;;;;6.90;5.00;;;3.00;99.90;;;;;;5074652;28;20115;-41
2022/02/28 08:43:41;;;;;;;7.20;4.88;;;3.00;99.90;;;;;;5083881;28;20114;-43
2022/02/28 08:46:08;;;;;;;6.25;4.88;;;3.10;99.90;;;;;;5077039;28;20107;-40
2022/02/28 08:48:35;;;;;;;6.10;4.53;;;3.10;99.90;;;;;;5080905;28;20387;-42
2022/02/28 08:51:00;;;;;;;7.82;5.22;;;3.10;99.90;;;;;;5080045;28;20111;-43
2022/02/28 08:53:26;;;;;;;7.10;5.25;;;3.20;99.90;;;;;;5080442;28;20126;-42
2022/02/28 08:55:52;;;;;;;7.85;4.65;;;3.20;99.90;;;;;;5086401;28;20115;-43
2022/02/28 08:58:17;;;;;;;8.60;5.05;;;3.30;99.90;;;;;;5078255;28;20065;-40
2022/02/28 09:00:43;;;;;;;7.10;4.90;;;3.30;99.90;;;;;;5087481;28;20556;-42
2022/02/28 09:03:09;;;;;;;5.13;4.32;;;3.40;99.90;;;;;;5077832;28;20077;-43
2022/02/28 09:05:35;;;;;;;6.85;4.93;;;3.50;99.90;;;;;;5087167;28;20039;-42
2022/02/28 09:08:01;;;;;;;6.43;4.55;;;3.60;99.90;;;;;;5077975;28;20551;-42
2022/02/28 09:10:26;;;;;;;6.47;4.95;;;3.60;99.90;;;;;;5088881;28;20024;-42
2022/02/28 09:12:52;;;;;;;7.88;5.38;;;3.70;99.90;;;;;;5075511;28;20871;-41
2022/02/28 09:15:18;;;;;;;5.78;4.60;;;3.70;99.90;;;;;;5088833;28;20031;-40
2022/02/28 09:17:43;;;;;;;6.35;4.88;;;3.80;99.90;;;;;;5076758;28;20762;-41
2022/02/28 09:20:09;;;;;;;6.45;4.97;;;3.90;99.90;;;;;;5088200;28;20376;-42
2022/02/28 09:22:35;;;;;;;7.45;5.25;;;4.00;99.90;;;;;;5078397;28;20036;-43
2022/02/28 09:25:00;;;;;;;8.57;5.00;;;4.00;99.90;;;;;;5086494;28;20055;-41
2022/02/28 09:27:27;;;;;;;6.10;4.78;;;4.10;99.90;;;;;;5080337;28;20059;-42
2022/02/28 09:29:53;;;;;;;7.03;5.50;;;4.10;99.90;;;;;;5083802;28;20093;-43
2022/02/28 09:32:18;;;;;;;6.90;5.25;;;4.20;99.90;;;;;;5083276;28;20024;-41
2022/02/28 09:34:44;;;;;;;6.85;4.70;;;4.20;99.90;;;;;;5080233;28;20016;-44
2022/02/28 09:37:10;;;;;;;7.80;5.22;;;4.30;99.90;;;;;;5086257;28;20067;-43
2022/02/28 09:39:36;;;;;;;6.97;4.90;;;4.40;99.90;;;;;;5078178;28;20107;-43
2022/02/28 09:42:02;;;;;;;6.50;4.75;;;4.40;99.90;;;;;;5086768;28;20135;-44
2022/02/28 09:44:29;;;;;;;6.07;5.00;;;4.50;99.90;;;;;;5076631;28;20074;-42
2022/02/28 09:46:56;;;;;;;7.70;5.25;;;4.50;99.90;;;;;;5087576;28;20071;-42
2022/02/28 09:49:22;;;;;;;7.50;5.53;;;4.60;99.90;;;;;;5079041;28;20024;-42
2022/02/28 09:51:47;;;;;;;8.10;5.50;;;4.60;99.90;;;;;;5088913;28;20054;-40
2022/02/28 09:54:13;;;;;;;5.97;4.80;;;4.70;99.90;;;;;;5075163;28;20508;-43
2022/02/28 09:56:39;;;;;;;8.05;5.90;;;4.80;99.90;;;;;;5087586;28;20108;-43
2022/02/28 09:59:05;;;;;;;8.98;5.38;;;4.80;99.90;;;;;;5075344;28;20140;-43
2022/02/28 10:01:31;;;;;;;7.63;5.50;;;4.90;99.90;;;;;;5087168;28;20034;-44
2022/02/28 10:03:56;;;;;;;7.72;5.80;;;5.00;99.90;;;;;;5076190;28;20017;-43
2022/02/28 10:06:22;;;;;;;9.65;6.82;;;5.00;99.90;;;;;;5084244;28;20024;-43
2022/02/28 10:08:52;;;;;;;8.20;5.80;;;5.10;99.90;;;;;;5079984;28;20127;-43
2022/02/28 10:11:33;;;;;;;7.57;5.57;;;5.10;99.90;;;;;;5082820;28;20115;-42
2022/02/28 10:14:05;;;;;;;6.95;5.30;;;5.20;99.90;;;;;;5081169;28;20041;-42
2022/02/28 10:16:33;;;;;;;7.20;5.00;;;5.20;99.90;;;;;;5082480;28;20093;-41
2022/02/28 10:19:00;;;;;;;6.63;5.55;;;5.30;99.90;;;;;;5082395;28;20039;-42
2022/02/28 10:21:48;;;;;;;7.25;5.20;;;5.30;99.90;;;;;;5080454;28;20097;-43
2022/02/28 10:24:19;;;;;;;6.57;5.03;;;5.30;99.90;;;;;;5079846;28;20562;-42
2022/02/28 10:26:47;;;;;;;6.72;4.68;;;5.40;99.90;;;;;;5082194;28;20065;-43
2022/02/28 10:29:15;;;;;;;6.70;5.00;;;5.40;99.90;;;;;;5083238;28;20021;-44
2022/02/28 10:31:43;;;;;;;5.82;4.70;;;5.50;99.90;;;;;;5079597;28;20065;-43
2022/02/28 10:34:14;;;;;;;5.13;4.22;;;5.50;99.90;;;;;;5084114;28;20076;-43
2022/02/28 10:36:43;;;;;;;5.20;4.15;;;5.50;99.90;;;;;;5078797;28;20422;-42
2022/02/28 10:39:10;;;;;;;6.85;4.60;;;5.60;99.90;;;;;;5085492;28;20035;-43
2022/02/28 10:41:41;;;;;;;5.95;4.85;;;5.70;99.90;;;;;;5075929;28;20121;-43
2022/02/28 10:44:12;;;;;;;7.22;5.10;;;5.80;99.90;;;;;;5085901;28;20329;-43
2022/02/28 10:46:42;;;;;;;6.45;4.90;;;5.80;99.90;;;;;;5075581;28;20664;-42
2022/02/28 10:49:17;;;;;;;6.05;4.25;;;5.90;99.90;;;;;;5082515;28;20117;-42
2022/02/28 10:51:50;;;;;;;5.30;4.60;;;6.00;99.90;;;;;;5077559;28;20048;-44
2022/02/28 10:54:37;;;;;;;5.47;4.10;;;6.10;99.90;;;;;;5067194;28;20114;-42
2022/02/28 10:57:04;;;;;;;5.50;4.15;;;6.20;99.90;;;;;;5078515;28;20032;-41
2022/02/28 10:59:50;;;;;;;7.50;4.70;;;6.20;99.90;;;;;;5067319;28;20071;-43
2022/02/28 11:02:33;;;;;;;6.30;4.40;;;6.20;99.90;;;;;;5075582;28;20119;-42
2022/02/28 11:05:12;;;;;;;8.13;4.72;;;6.30;99.90;;;;;;5084609;28;20115;-42
2022/02/28 11:07:49;;;;;;;6.22;4.55;;;6.30;99.90;;;;;;5076419;28;20133;-42
2022/02/28 11:10:17;;;;;;;5.95;4.30;;;6.40;99.90;;;;;;5083982;28;20016;-41
2022/02/28 11:12:43;;;;;;;6.22;4.40;;;6.40;99.90;;;;;;5075230;28;20493;-43
2022/02/28 11:15:16;;;;;;;7.32;4.68;;;6.50;99.90;;;;;;5084342;28;20025;-42
2022/02/28 11:17:46;;;;;;;6.68;5.00;;;6.50;99.90;;;;;;5075414;28;20551;-43
2022/02/28 11:20:15;;;;;;;6.63;5.10;;;6.60;99.90;;;;;;5084576;28;20035;-43
2022/02/28 11:22:43;;;;;;;7.68;4.85;;;6.60;99.90;;;;;;5075110;28;20109;-41
2022/02/28 11:25:11;;;;;;;8.18;5.85;;;6.70;99.90;;;;;;5085786;28;20032;-41
2022/02/28 11:27:38;;;;;;;6.93;5.40;;;6.70;99.90;;;;;;5073862;28;20047;-42
2022/02/28 11:30:28;;;;;;;7.22;6.18;;;6.70;99.90;;;;;;5086506;28;20032;-44
2022/02/28 11:32:58;;;;;;;9.10;5.43;;;6.80;99.90;;;;;;5065354;28;20040;-42
2022/02/28 11:35:50;;;;;;;7.43;5.22;;;6.90;99.90;;;;;;5085335;28;20027;-42
2022/02/28 11:38:15;;;;;;;6.45;5.20;;;6.90;99.90;;;;;;5077099;28;20115;-43
2022/02/28 11:40:45;;;;;;;7.40;5.63;;;7.00;99.90;;;;;;5066618;28;20086;-43
2022/02/28 11:43:28;;;;;;;8.00;5.97;;;7.00;99.90;;;;;;5077255;28;20039;-43
2022/02/28 11:45:58;;;;;;;;;;;7.10;99.90;;;;;;5067999;28;20397;-42
2022/02/28 11:48:37;;;;;;;6.97;5.93;;;7.10;99.90;;;;;;5076833;28;19959;-43
2022/02/28 11:51:19;;;;;;;7.93;6.03;;;7.10;99.90;;;;;;5067123;28;20463;-40
2022/02/28 11:53:48;;;;;;;7.93;5.82;;;7.20;99.90;;;;;;5077066;28;20140;-43
2022/02/28 11:56:17;;;;;;;8.50;6.22;;;7.20;99.90;;;;;;5065550;28;20028;-42
2022/02/28 11:59:14;;;;;;;11.40;7.43;;;7.30;99.90;;;;;;5077473;28;20032;-42
2022/02/28 12:01:42;;;;;;;9.38;6.43;;;7.30;99.90;;;;;;5066456;28;20495;-42
2022/02/28 12:04:08;;;;;;;8.98;6.45;;;7.40;99.70;;;;;;5077099;28;20028;-42
2022/02/28 12:06:54;;;;;;;9.07;5.88;;;7.50;99.50;;;;;;5066423;28;20036;-42
2022/02/28 12:09:38;;;;;;;6.75;5.38;;;7.50;99.30;;;;;;5076046;28;20030;-44
2022/02/28 12:12:23;;;;;;;6.88;5.30;;;7.60;99.20;;;;;;5067129;28;20148;-41
2022/02/28 12:14:55;;;;;;;7.35;5.00;;;7.70;99.30;;;;;;5076175;28;20032;-42
2022/02/28 12:17:33;;;;;;;7.22;5.38;;;7.70;99.20;;;;;;5083007;28;20028;-42
2022/02/28 12:20:21;;;;;;;6.60;5.00;;;7.70;99.20;;;;;;5075090;28;20051;-43
2022/02/28 12:22:55;;;;;;;6.43;4.68;;;7.70;99.20;;;;;;5081670;28;20036;-42
2022/02/28 12:25:42;;;;;;;5.80;4.38;;;7.80;99.20;;;;;;5075732;28;20119;-40
2022/02/28 12:28:23;;;;;;;6.35;4.50;;;7.80;99.10;;;;;;5080545;28;20033;-42
2022/02/28 12:30:52;;;;;;;5.82;4.60;;;7.80;99.30;;;;;;5078872;28;20051;-41
2022/02/28 12:33:19;;;;;;;5.38;4.63;;;7.90;99.00;;;;;;5080967;28;20036;-43
2022/02/28 12:35:55;;;;;;;5.22;4.55;;;7.90;98.90;;;;;;5077837;28;20111;-43
2022/02/28 12:38:23;;;;;;;5.93;4.25;;;7.90;98.90;;;;;;5081022;28;20114;-44
2022/02/28 12:40:57;;;;;;;5.35;3.92;;;8.00;98.90;;;;;;5077165;28;20067;-43
2022/02/28 12:43:25;;;;;;;5.03;4.28;;;8.00;98.90;;;;;;5081946;28;20680;-40
2022/02/28 12:45:54;;;;;;;6.03;4.55;;;8.00;98.40;;;;;;5075510;28;20035;-42
2022/02/28 12:48:21;;;;;;;9.20;5.22;;;8.10;98.40;;;;;;5083764;28;20033;-41
2022/02/28 12:50:49;;;;;;;5.70;4.50;;;8.10;98.30;;;;;;5073084;28;20016;-41
2022/02/28 12:53:15;;;;;;;5.90;4.40;;;8.10;98.20;;;;;;5083261;28;20114;-42
2022/02/28 12:55:53;;;;;;;6.50;4.38;;;8.20;98.20;;;;;;5074601;28;20020;-43
2022/02/28 12:58:23;;;;;;;5.53;4.18;;;8.20;98.10;;;;;;5083062;28;20036;-42